createdAt,value
2022-08-08T00:01:52.570Z,22.32
2022-08-08T00:04:25.479Z,22.31
2022-08-08T00:06:56.495Z,22.30
2022-08-08T00:09:35.937Z,22.28
2022-08-08T00:12:09.403Z,22.27
2022-08-08T00:14:48.275Z,22.27
2022-08-08T00:17:58.471Z,22.25
2022-08-08T00:20:27.510Z,22.25
2022-08-08T00:22:59.102Z,22.24
2022-08-08T00:25:28.604Z,22.25
2022-08-08T00:28:08.116Z,22.23
2022-08-08T00:31:00.750Z,22.21
2022-08-08T00:34:20.162Z,22.22
2022-08-08T00:36:51.651Z,22.20
2022-08-08T00:41:05.997Z,22.19
2022-08-08T00:42:45.948Z,22.18
2022-08-08T00:45:50.170Z,22.17
2022-08-08T00:49:01.280Z,22.17
2022-08-08T00:51:52.978Z,22.18
2022-08-08T00:54:56.434Z,22.18
2022-08-08T00:58:16.722Z,22.17
2022-08-08T01:00:51.366Z,22.17
2022-08-08T01:04:00.082Z,22.17
2022-08-08T01:07:06.240Z,22.16
2022-08-08T01:10:12.433Z,22.14
2022-08-08T01:13:16.605Z,22.14
2022-08-08T01:15:59.892Z,22.13
2022-08-08T01:19:11.672Z,22.13
2022-08-08T01:22:36.675Z,22.12
2022-08-08T01:25:25.124Z,22.11
2022-08-08T01:28:30.536Z,22.11
2022-08-08T01:32:13.782Z,22.09
2022-08-08T01:34:47.058Z,22.07
2022-08-08T01:37:56.364Z,22.06
2022-08-08T01:40:28.826Z,22.06
2022-08-08T01:43:02.328Z,22.06
2022-08-08T01:45:54.353Z,22.06
2022-08-08T01:48:35.137Z,22.07
2022-08-08T01:52:44.261Z,22.07
2022-08-08T01:55:44.891Z,22.05
2022-08-08T01:57:33.778Z,22.03
2022-08-08T02:00:17.821Z,22.04
2022-08-08T02:03:57.051Z,22.03
2022-08-08T02:06:32.306Z,22.02
2022-08-08T02:09:02.466Z,22.01
2022-08-08T02:11:53.007Z,22.02
2022-08-08T02:14:31.906Z,22.01
2022-08-08T02:17:03.244Z,22.00
2022-08-08T02:20:07.276Z,21.98
2022-08-08T02:22:34.418Z,21.97
2022-08-08T02:25:23.401Z,21.97
2022-08-08T02:28:04.995Z,21.96
2022-08-08T02:30:38.879Z,21.95
2022-08-08T02:34:00.732Z,21.96
2022-08-08T02:36:32.026Z,21.95
2022-08-08T02:39:01.901Z,21.94
2022-08-08T02:42:18.716Z,21.92
2022-08-08T02:45:22.209Z,21.92
2022-08-08T02:48:25.829Z,21.91
2022-08-08T02:51:30.097Z,21.90
2022-08-08T02:54:39.917Z,21.89
2022-08-08T02:58:01.693Z,21.89
2022-08-08T03:00:59.173Z,21.88
2022-08-08T03:05:04.276Z,21.87
2022-08-08T03:07:15.504Z,21.87
2022-08-08T03:10:09.461Z,21.88
2022-08-08T03:15:54.025Z,21.86
2022-08-08T03:16:43.865Z,21.84
2022-08-08T03:19:37.506Z,21.83
2022-08-08T03:22:06.454Z,21.83
2022-08-08T03:24:56.959Z,21.82
2022-08-08T03:27:28.676Z,21.83
2022-08-08T03:30:06.793Z,21.82
2022-08-08T03:32:59.964Z,21.83
2022-08-08T03:35:38.634Z,21.83
2022-08-08T03:38:54.395Z,21.81
2022-08-08T03:40:55.921Z,21.79
2022-08-08T03:43:25.129Z,21.79
2022-08-08T03:46:07.316Z,21.79
2022-08-08T03:49:38.257Z,21.77
2022-08-08T03:51:40.381Z,21.77
2022-08-08T03:54:15.374Z,21.75
2022-08-08T03:56:53.021Z,21.73
2022-08-08T03:59:22.909Z,21.73
2022-08-08T04:02:12.539Z,21.74
2022-08-08T04:04:39.979Z,21.71
2022-08-08T04:07:09.616Z,21.73
2022-08-08T04:09:58.758Z,21.69
2022-08-08T04:12:26.655Z,21.59
2022-08-08T04:14:54.683Z,21.54
2022-08-08T04:17:58.162Z,21.50
2022-08-08T04:20:11.225Z,21.50
2022-08-08T04:22:38.834Z,21.49
2022-08-08T04:25:07.849Z,21.48
2022-08-08T04:28:03.677Z,21.49
2022-08-08T04:30:25.201Z,21.47
2022-08-08T04:32:52.956Z,21.50
2022-08-08T04:35:22.726Z,21.49
2022-08-08T04:37:51.164Z,21.46
2022-08-08T04:40:19.150Z,21.46
2022-08-08T04:42:56.921Z,21.45
2022-08-08T04:45:25.814Z,21.44
2022-08-08T04:47:53.762Z,21.43
2022-08-08T04:50:23.822Z,21.39
2022-08-08T04:52:58.751Z,21.39
2022-08-08T04:55:29.166Z,21.37
2022-08-08T04:58:11.060Z,21.33
2022-08-08T05:00:39.763Z,21.33
2022-08-08T05:03:12.434Z,21.31
2022-08-08T05:05:44.472Z,21.30
2022-08-08T05:08:13.733Z,21.29
2022-08-08T05:10:41.340Z,21.29
2022-08-08T05:13:10.408Z,21.32
2022-08-08T05:16:51.533Z,21.34
2022-08-08T05:18:33.743Z,21.32
2022-08-08T05:21:05.600Z,21.34
2022-08-08T05:23:41.085Z,21.34
2022-08-08T05:26:14.291Z,21.32
2022-08-08T05:28:55.811Z,21.32
2022-08-08T05:32:04.690Z,21.34
2022-08-08T05:34:20.652Z,21.32
2022-08-08T05:36:48.436Z,21.33
2022-08-08T05:39:17.344Z,21.34
2022-08-08T05:41:54.735Z,21.35
2022-08-08T05:44:31.190Z,21.34
2022-08-08T05:47:02.730Z,21.33
2022-08-08T05:49:31.038Z,21.33
2022-08-08T05:51:58.827Z,21.36
2022-08-08T05:54:46.216Z,21.35
2022-08-08T05:57:16.263Z,21.36
2022-08-08T06:00:19.775Z,21.38
2022-08-08T06:03:17.370Z,21.40
2022-08-08T06:05:56.603Z,21.37
2022-08-08T06:08:34.760Z,21.39
2022-08-08T06:11:03.290Z,21.39
2022-08-08T06:13:36.249Z,21.39
2022-08-08T06:16:16.429Z,21.41
2022-08-08T06:18:46.542Z,21.40
2022-08-08T06:21:28.601Z,21.42
2022-08-08T06:24:14.089Z,21.42
2022-08-08T06:26:52.946Z,21.44
2022-08-08T06:29:49.151Z,21.46
2022-08-08T06:32:17.189Z,21.46
2022-08-08T06:34:56.283Z,21.46
2022-08-08T06:37:36.880Z,21.47
2022-08-08T06:40:07.322Z,21.48
2022-08-08T06:42:42.624Z,21.49
2022-08-08T06:45:10.712Z,21.50
2022-08-08T06:47:58.271Z,21.52
2022-08-08T06:50:31.905Z,21.53
2022-08-08T06:53:01.154Z,21.54
2022-08-08T06:55:41.486Z,21.55
2022-08-08T06:58:09.515Z,21.57
2022-08-08T07:00:40.906Z,21.59
2022-08-08T07:03:51.608Z,21.62
2022-08-08T07:06:02.397Z,21.62
2022-08-08T07:08:31.184Z,21.63
2022-08-08T07:11:00.165Z,21.64
2022-08-08T07:13:32.446Z,21.66
2022-08-08T07:16:10.062Z,21.66
2022-08-08T07:18:43.914Z,21.67
2022-08-08T07:21:18.886Z,21.69
2022-08-08T07:24:01.161Z,21.70
2022-08-08T07:26:35.393Z,21.72
2022-08-08T07:29:05.959Z,21.72
2022-08-08T07:31:39.544Z,21.73
2022-08-08T07:34:09.591Z,21.74
2022-08-08T07:36:37.313Z,21.74
2022-08-08T07:39:10.772Z,21.74
2022-08-08T07:42:04.487Z,21.75
2022-08-08T07:44:37.896Z,21.77
2022-08-08T07:47:11.176Z,21.77
2022-08-08T07:49:40.528Z,21.77
2022-08-08T07:52:08.293Z,21.78
2022-08-08T07:54:43.481Z,21.78
2022-08-08T07:57:19.770Z,21.81
2022-08-08T07:59:51.374Z,21.81
2022-08-08T08:02:35.824Z,21.81
2022-08-08T08:05:14.804Z,21.81
2022-08-08T08:07:45.760Z,21.81
2022-08-08T08:10:14.017Z,21.82
2022-08-08T08:12:43.765Z,21.82
2022-08-08T08:15:11.423Z,21.83
2022-08-08T08:17:48.971Z,21.83
2022-08-08T08:20:18.836Z,21.84
2022-08-08T08:22:47.391Z,21.85
2022-08-08T08:25:17.019Z,21.85
2022-08-08T08:27:47.393Z,21.84
2022-08-08T08:30:15.399Z,21.84
2022-08-08T08:32:49.547Z,21.87
2022-08-08T08:35:21.690Z,21.85
2022-08-08T08:38:15.660Z,21.87
2022-08-08T08:40:48.688Z,21.86
2022-08-08T08:43:19.091Z,21.87
2022-08-08T08:45:47.996Z,21.88
2022-08-08T08:48:19.229Z,21.87
2022-08-08T08:50:50.335Z,21.88
2022-08-08T08:53:27.996Z,21.88
2022-08-08T08:56:08.452Z,21.89
2022-08-08T08:58:46.540Z,21.88
2022-08-08T09:01:18.609Z,21.89
2022-08-08T09:03:50.450Z,21.88
2022-08-08T09:06:28.853Z,21.89
2022-08-08T09:09:03.744Z,21.90
2022-08-08T09:11:35.110Z,21.90
2022-08-08T09:14:15.852Z,21.89
2022-08-08T09:16:43.493Z,21.91
2022-08-08T09:19:11.085Z,21.89
2022-08-08T09:21:57.376Z,21.91
2022-08-08T09:24:29.594Z,21.91
2022-08-08T09:26:59.753Z,21.92
2022-08-08T09:29:28.417Z,21.92
2022-08-08T09:32:02.571Z,21.92
2022-08-08T09:34:34.662Z,21.92
2022-08-08T09:37:39.428Z,21.93
2022-08-08T09:40:01.470Z,21.94
2022-08-08T09:42:33.609Z,21.94
2022-08-08T09:45:20.549Z,21.94
2022-08-08T09:48:16.212Z,21.95
2022-08-08T09:50:55.757Z,21.95
2022-08-08T09:53:59.681Z,21.96
2022-08-08T09:56:25.271Z,21.96
2022-08-08T09:59:00.824Z,21.97
2022-08-08T10:01:59.167Z,21.98
2022-08-08T10:04:38.569Z,21.97
2022-08-08T10:07:13.946Z,21.98
2022-08-08T10:09:59.836Z,21.99
2022-08-08T10:12:54.286Z,22.02
2022-08-08T10:15:26.324Z,22.02
2022-08-08T10:18:09.109Z,22.02
2022-08-08T10:20:51.259Z,22.04
2022-08-08T10:23:42.066Z,22.04
2022-08-08T10:26:25.971Z,22.05
2022-08-08T10:29:03.837Z,22.05
2022-08-08T10:31:50.399Z,22.04
2022-08-08T10:34:22.148Z,22.10
2022-08-08T10:36:50.510Z,22.12
2022-08-08T10:39:23.360Z,22.12
2022-08-08T10:42:16.466Z,22.12
2022-08-08T10:44:49.415Z,22.10
2022-08-08T10:47:21.686Z,22.10
2022-08-08T10:50:00.577Z,22.12
2022-08-08T10:52:31.722Z,22.15
2022-08-08T10:55:06.200Z,22.14
2022-08-08T10:57:50.091Z,22.13
2022-08-08T11:00:22.119Z,22.13
2022-08-08T11:02:50.215Z,22.13
2022-08-08T11:05:18.086Z,22.12
2022-08-08T11:08:37.793Z,22.13
2022-08-08T11:10:39.626Z,22.12
2022-08-08T11:13:28.925Z,22.11
2022-08-08T11:16:11.581Z,22.12
2022-08-08T11:18:51.682Z,22.13
2022-08-08T11:21:20.217Z,22.15
2022-08-08T11:24:02.018Z,22.14
2022-08-08T11:26:30.636Z,22.15
2022-08-08T11:29:05.745Z,22.15
2022-08-08T11:31:47.044Z,22.14
2022-08-08T11:34:23.215Z,22.12
2022-08-08T11:36:59.461Z,22.13
2022-08-08T11:39:27.571Z,22.13
2022-08-08T11:42:09.189Z,22.13
2022-08-08T11:44:38.427Z,22.13
2022-08-08T11:47:12.968Z,22.13
2022-08-08T11:49:45.149Z,22.12
2022-08-08T11:52:31.859Z,22.14
2022-08-08T11:55:03.458Z,22.13
2022-08-08T11:57:35.499Z,22.15
2022-08-08T12:00:11.626Z,22.17
2022-08-08T12:02:52.214Z,22.18
2022-08-08T12:05:22.833Z,22.18
2022-08-08T12:07:57.221Z,22.16
2022-08-08T12:10:26.135Z,22.17
2022-08-08T12:13:05.921Z,22.16
2022-08-08T12:15:41.783Z,22.17
2022-08-08T12:18:24.667Z,22.17
2022-08-08T12:20:53.624Z,22.17
2022-08-08T12:23:40.200Z,22.18
2022-08-08T12:26:17.216Z,22.16
2022-08-08T12:28:56.845Z,22.16
2022-08-08T12:31:39.055Z,22.16
2022-08-08T12:34:53.799Z,22.18
2022-08-08T12:37:41.284Z,22.22
2022-08-08T12:40:23.459Z,22.23
2022-08-08T12:42:55.607Z,22.23
2022-08-08T12:45:57.753Z,22.25
2022-08-08T12:48:37.822Z,22.24
2022-08-08T12:51:10.752Z,22.23
2022-08-08T12:53:45.744Z,22.22
2022-08-08T12:56:19.563Z,22.20
2022-08-08T12:58:52.039Z,22.21
2022-08-08T13:01:24.663Z,22.21
2022-08-08T13:04:18.399Z,22.20
2022-08-08T13:06:58.821Z,22.20
2022-08-08T13:10:00.607Z,22.21
2022-08-08T13:12:30.104Z,22.23
2022-08-08T13:14:58.290Z,22.24
2022-08-08T13:18:08.159Z,22.24
2022-08-08T13:20:17.389Z,22.24
2022-08-08T13:22:46.053Z,22.26
2022-08-08T13:25:17.149Z,22.24
2022-08-08T13:27:44.963Z,22.23
2022-08-08T13:30:20.884Z,22.23
2022-08-08T13:32:55.826Z,22.22
2022-08-08T13:35:29.600Z,22.22
2022-08-08T13:38:08.440Z,22.23
2022-08-08T13:40:41.638Z,22.21
2022-08-08T13:43:12.997Z,22.20
2022-08-08T13:45:40.852Z,22.21
2022-08-08T13:48:14.420Z,22.20
2022-08-08T13:50:52.033Z,22.20
2022-08-08T13:53:27.946Z,22.19
2022-08-08T13:56:01.078Z,22.19
2022-08-08T13:58:29.524Z,22.20
2022-08-08T14:00:57.341Z,22.20
2022-08-08T14:03:53.690Z,22.20
2022-08-08T14:06:32.658Z,22.20
2022-08-08T14:09:25.192Z,22.19
2022-08-08T14:11:49.649Z,22.19
2022-08-08T14:14:20.972Z,22.20
2022-08-08T14:16:55.454Z,22.18
2022-08-08T14:19:57.149Z,22.19
2022-08-08T14:22:24.973Z,22.19
2022-08-08T14:24:54.565Z,22.19
2022-08-08T14:27:28.910Z,22.18
2022-08-08T14:30:01.476Z,22.19
2022-08-08T14:32:35.005Z,22.18
2022-08-08T14:35:04.844Z,22.19
2022-08-08T14:37:43.331Z,22.19
2022-08-08T14:40:28.610Z,22.18
2022-08-08T14:43:01.640Z,22.19
2022-08-08T14:46:02.954Z,22.20
2022-08-08T14:48:40.910Z,22.21
2022-08-08T14:51:20.986Z,22.21
2022-08-08T14:53:54.908Z,22.21
2022-08-08T14:56:24.806Z,22.21
2022-08-08T14:58:52.585Z,22.21
2022-08-08T15:01:27.763Z,22.21
2022-08-08T15:04:08.832Z,22.21
2022-08-08T15:06:37.163Z,22.20
2022-08-08T15:09:07.087Z,22.20
2022-08-08T15:11:42.936Z,22.20
2022-08-08T15:14:15.006Z,22.19
2022-08-08T15:16:42.797Z,22.19
2022-08-08T15:19:14.893Z,22.18
2022-08-08T15:21:44.579Z,22.18
2022-08-08T15:24:15.968Z,22.17
2022-08-08T15:26:52.446Z,22.18
2022-08-08T15:29:22.587Z,22.18
2022-08-08T15:32:18.888Z,22.17
2022-08-08T15:34:39.770Z,22.19
2022-08-08T15:37:07.630Z,22.18
2022-08-08T15:39:39.417Z,22.17
2022-08-08T15:42:10.569Z,22.18
2022-08-08T15:44:42.051Z,22.17
2022-08-08T15:47:16.201Z,22.17
2022-08-08T15:49:47.697Z,22.17
2022-08-08T15:52:15.914Z,22.16
2022-08-08T15:54:51.321Z,22.16
2022-08-08T15:57:19.567Z,22.16
2022-08-08T16:00:06.291Z,22.16
2022-08-08T16:02:36.304Z,22.15
2022-08-08T16:05:13.873Z,22.15
2022-08-08T16:07:52.380Z,22.15
2022-08-08T16:13:04.838Z,22.14
2022-08-08T16:13:30.098Z,22.15
2022-08-08T16:16:09.302Z,22.13
2022-08-08T16:18:41.243Z,22.15
2022-08-08T16:21:20.552Z,22.14
2022-08-08T16:23:55.836Z,22.15
2022-08-08T16:26:33.866Z,22.15
2022-08-08T16:29:02.356Z,22.15
2022-08-08T16:31:31.232Z,22.16
2022-08-08T16:33:59.638Z,22.16
2022-08-08T16:36:33.418Z,22.17
2022-08-08T16:39:09.598Z,22.17
2022-08-08T16:41:52.963Z,22.17
2022-08-08T16:44:27.791Z,22.17
2022-08-08T16:47:15.980Z,22.17
2022-08-08T16:49:43.669Z,22.17
2022-08-08T16:55:00.272Z,22.18
2022-08-08T16:55:28.064Z,22.19
2022-08-08T16:58:14.268Z,22.21
2022-08-08T17:00:35.808Z,22.24
2022-08-08T17:03:04.191Z,22.31
2022-08-08T17:05:44.730Z,22.37
2022-08-08T17:08:13.909Z,22.44
2022-08-08T17:10:47.544Z,22.51
2022-08-08T17:13:40.953Z,22.60
2022-08-08T17:16:16.318Z,22.67
2022-08-08T17:18:45.409Z,22.73
2022-08-08T17:21:13.743Z,22.80
2022-08-08T17:24:01.676Z,22.87
2022-08-08T17:26:30.473Z,22.90
2022-08-08T17:29:04.533Z,22.93
2022-08-08T17:31:44.487Z,22.95
2022-08-08T17:34:49.303Z,22.98
2022-08-08T17:37:03.215Z,23.02
2022-08-08T17:40:04.868Z,23.05
2022-08-08T17:42:19.163Z,23.08
2022-08-08T17:44:51.030Z,23.10
2022-08-08T17:47:24.158Z,23.12
2022-08-08T17:50:00.987Z,23.15
2022-08-08T17:52:31.196Z,23.17
2022-08-08T17:55:01.065Z,23.19
2022-08-08T17:57:35.481Z,23.20
2022-08-08T18:00:13.406Z,23.24
2022-08-08T18:03:04.752Z,23.25
2022-08-08T18:05:49.836Z,23.29
2022-08-08T18:08:25.270Z,23.31
2022-08-08T18:11:14.717Z,23.33
2022-08-08T18:13:44.293Z,23.35
2022-08-08T18:16:20.358Z,23.36
2022-08-08T18:18:52.670Z,23.39
2022-08-08T18:21:34.727Z,23.43
2022-08-08T18:24:17.237Z,23.45
2022-08-08T18:26:54.630Z,23.47
2022-08-08T18:29:29.412Z,23.50
2022-08-08T18:31:59.537Z,23.55
2022-08-08T18:34:28.086Z,23.56
2022-08-08T18:36:56.247Z,23.58
2022-08-08T18:39:27.867Z,23.59
2022-08-08T18:41:59.744Z,23.59
2022-08-08T18:44:32.819Z,23.60
2022-08-08T18:47:03.726Z,23.61
2022-08-08T18:49:54.883Z,23.62
2022-08-08T18:52:23.685Z,23.63
2022-08-08T18:55:00.043Z,23.61
2022-08-08T18:57:41.964Z,23.58
2022-08-08T19:00:16.754Z,23.54
2022-08-08T19:02:56.678Z,23.50
2022-08-08T19:05:31.819Z,23.44
2022-08-08T19:08:02.913Z,23.38
2022-08-08T19:10:30.702Z,23.33
2022-08-08T19:13:00.250Z,23.27
2022-08-08T19:15:33.832Z,23.23
2022-08-08T19:18:33.594Z,23.18
2022-08-08T19:20:53.667Z,23.10
2022-08-08T19:23:22.008Z,23.07
2022-08-08T19:26:01.368Z,23.02
2022-08-08T19:28:30.661Z,22.97
2022-08-08T19:31:04.273Z,22.95
2022-08-08T19:33:52.409Z,22.90
2022-08-08T19:36:28.147Z,22.88
2022-08-08T19:38:56.272Z,22.85
2022-08-08T19:41:29.225Z,22.82
2022-08-08T19:44:04.026Z,22.79
2022-08-08T19:46:40.383Z,22.77
2022-08-08T19:49:09.803Z,22.74
2022-08-08T19:51:41.362Z,22.72
2022-08-08T19:54:10.965Z,22.70
2022-08-08T19:56:40.073Z,22.67
2022-08-08T19:59:08.771Z,22.65
2022-08-08T20:02:01.450Z,22.63
2022-08-08T20:04:25.779Z,22.61
2022-08-08T20:06:53.973Z,22.59
2022-08-08T20:09:24.572Z,22.57
2022-08-08T20:11:52.938Z,22.55
2022-08-08T20:14:32.092Z,22.53
2022-08-08T20:17:02.670Z,22.52
2022-08-08T20:19:34.384Z,22.52
2022-08-08T20:22:13.466Z,22.50
2022-08-08T20:24:48.921Z,22.49
2022-08-08T20:27:20.400Z,22.48
2022-08-08T20:30:00.153Z,22.47
2022-08-08T20:32:29.584Z,22.46
2022-08-08T20:35:17.538Z,22.45
2022-08-08T20:37:54.886Z,22.45
2022-08-08T20:40:33.578Z,22.44
2022-08-08T20:43:13.240Z,22.42
2022-08-08T20:45:58.126Z,22.41
2022-08-08T20:48:31.444Z,22.40
2022-08-08T20:51:00.567Z,22.39
2022-08-08T20:53:59.755Z,22.38
2022-08-08T21:01:20.319Z,22.35
2022-08-08T21:03:55.513Z,22.34
2022-08-08T21:06:53.268Z,22.33
2022-08-08T21:09:16.470Z,22.32
2022-08-08T21:11:50.801Z,22.31
2022-08-08T21:14:33.599Z,22.30
2022-08-08T21:17:03.033Z,22.29
2022-08-08T21:19:44.305Z,22.29
2022-08-08T21:22:15.562Z,22.28
2022-08-08T21:24:52.635Z,22.27
2022-08-08T21:28:05.701Z,22.27
2022-08-08T21:30:19.381Z,22.26
2022-08-08T21:32:51.165Z,22.25
2022-08-08T21:36:17.233Z,22.24
2022-08-08T21:38:16.267Z,22.24
2022-08-08T21:40:55.984Z,22.23
2022-08-08T21:43:33.479Z,22.22
2022-08-08T21:48:05.442Z,22.22
2022-08-08T21:48:51.862Z,22.22
2022-08-08T21:54:32.398Z,22.20
2022-08-08T21:54:33.581Z,22.21
2022-08-08T21:56:59.837Z,22.21
2022-08-08T22:00:01.439Z,22.20
2022-08-08T22:02:19.633Z,22.20
2022-08-08T22:04:52.495Z,22.20
2022-08-08T22:07:20.286Z,22.18
2022-08-08T22:09:56.228Z,22.16
2022-08-08T22:12:24.050Z,22.16
2022-08-08T22:14:53.207Z,22.17
2022-08-08T22:17:20.976Z,22.16
2022-08-08T22:20:12.795Z,22.16
2022-08-08T22:22:38.563Z,22.17
2022-08-08T22:25:12.486Z,22.16
2022-08-08T22:28:02.806Z,22.16
2022-08-08T22:30:41.412Z,22.13
2022-08-08T22:34:10.832Z,22.15
2022-08-08T22:36:04.099Z,22.12
2022-08-08T22:38:48.933Z,22.11
2022-08-08T22:41:21.618Z,22.12
2022-08-08T22:44:01.883Z,22.11
2022-08-08T22:46:33.766Z,22.11
2022-08-08T22:49:01.561Z,22.10
2022-08-08T22:51:30.180Z,22.09
2022-08-08T22:54:30.278Z,22.09
2022-08-08T22:56:51.766Z,22.08
2022-08-08T22:59:19.374Z,22.08
2022-08-08T23:02:03.355Z,22.06
2022-08-08T23:04:33.615Z,22.06
2022-08-08T23:07:03.393Z,22.06
2022-08-08T23:09:39.291Z,22.05
2022-08-08T23:12:39.840Z,22.05
2022-08-08T23:15:10.809Z,22.05
2022-08-08T23:17:53.841Z,22.03
2022-08-08T23:20:27.323Z,22.02
2022-08-08T23:22:56.695Z,22.03
2022-08-08T23:25:24.478Z,22.01
2022-08-08T23:27:54.877Z,22.01
2022-08-08T23:30:22.752Z,21.99
2022-08-08T23:32:51.493Z,22.01
2022-08-08T23:35:19.124Z,22.01
2022-08-08T23:38:03.103Z,21.99
2022-08-08T23:40:31.425Z,22.00
2022-08-08T23:43:02.814Z,21.98
2022-08-08T23:49:03.604Z,21.98
2022-08-08T23:49:05.464Z,21.98
2022-08-08T23:51:12.858Z,21.95
2022-08-08T23:54:06.320Z,21.96
2022-08-08T23:56:44.050Z,21.96
2022-08-08T23:59:16.783Z,21.95
